createdAt,value
2022-10-07T00:00:11.047Z,10.08
2022-10-07T00:02:38.953Z,10.42
2022-10-07T00:05:06.212Z,10.96
2022-10-07T00:07:33.105Z,10.39
2022-10-07T00:09:59.830Z,11.19
2022-10-07T00:12:26.769Z,9.98
2022-10-07T00:14:54.076Z,10.70
2022-10-07T00:17:23.220Z,11.18
2022-10-07T00:19:50.477Z,10.51
2022-10-07T00:22:17.351Z,9.90
2022-10-07T00:24:44.492Z,10.41
2022-10-07T00:27:11.716Z,9.87
2022-10-07T00:29:38.552Z,9.99
2022-10-07T00:32:05.335Z,9.71
2022-10-07T00:34:34.901Z,11.06
2022-10-07T00:37:04.622Z,11.06
2022-10-07T00:39:31.668Z,11.06
2022-10-07T00:41:58.610Z,10.31
2022-10-07T00:44:39.740Z,10.20
2022-10-07T00:47:12.400Z,10.54
2022-10-07T00:52:35.060Z,10.18
2022-10-07T00:55:08.164Z,11.00
2022-10-07T00:57:36.599Z,9.80
2022-10-07T01:00:05.486Z,9.69
2022-10-07T01:02:36.166Z,10.91
2022-10-07T01:05:08.218Z,9.71
2022-10-07T01:07:35.865Z,10.94
2022-10-07T01:10:08.198Z,10.21
2022-10-07T01:12:47.333Z,10.57
2022-10-07T01:15:22.326Z,10.93
2022-10-07T01:18:01.842Z,10.45
2022-10-07T01:20:38.488Z,9.93
2022-10-07T01:23:20.913Z,10.40
2022-10-07T01:26:17.354Z,10.89
2022-10-07T01:28:49.816Z,10.73
2022-10-07T01:31:31.860Z,9.65
2022-10-07T01:34:01.374Z,10.67
2022-10-07T01:36:28.733Z,10.51
2022-10-07T01:39:00.704Z,10.29
2022-10-07T01:41:30.241Z,9.61
2022-10-07T01:44:00.406Z,9.60
2022-10-07T01:46:28.251Z,10.77
2022-10-07T01:48:56.222Z,10.33
2022-10-07T01:51:26.379Z,9.49
2022-10-07T01:54:01.874Z,10.02
2022-10-07T01:56:43.088Z,10.29
2022-10-07T01:59:23.474Z,10.65
2022-10-07T02:02:02.192Z,10.03
2022-10-07T02:04:42.661Z,9.46
2022-10-07T02:07:21.001Z,9.37
2022-10-07T02:09:56.588Z,10.64
2022-10-07T02:12:30.584Z,9.87
2022-10-07T02:15:16.554Z,9.49
2022-10-07T02:17:48.933Z,9.74
2022-10-07T02:20:19.553Z,10.58
2022-10-07T02:22:48.961Z,10.64
2022-10-07T02:25:22.848Z,9.65
2022-10-07T02:27:53.896Z,9.60
2022-10-07T02:30:24.790Z,10.42
2022-10-07T02:32:55.600Z,9.28
2022-10-07T02:35:36.362Z,9.58
2022-10-07T02:38:13.561Z,10.47
2022-10-07T02:40:48.798Z,9.81
2022-10-07T02:43:20.557Z,9.36
2022-10-07T02:45:54.884Z,10.16
2022-10-07T02:48:26.229Z,10.27
2022-10-07T02:50:56.736Z,9.98
2022-10-07T02:53:28.639Z,10.43
2022-10-07T02:55:59.586Z,10.21
2022-10-07T02:58:27.640Z,10.48
2022-10-07T03:00:59.136Z,10.48
2022-10-07T03:03:26.243Z,10.40
2022-10-07T03:05:53.681Z,10.27
2022-10-07T03:08:22.504Z,10.41
2022-10-07T03:10:49.215Z,9.34
2022-10-07T03:13:17.392Z,10.18
2022-10-07T03:15:46.473Z,9.13
2022-10-07T03:18:14.744Z,10.17
2022-10-07T03:20:41.805Z,9.43
2022-10-07T03:23:08.520Z,9.29
2022-10-07T03:25:35.900Z,10.43
2022-10-07T03:28:05.396Z,9.76
2022-10-07T03:30:32.046Z,9.43
2022-10-07T03:33:06.971Z,9.90
2022-10-07T03:35:40.197Z,9.13
2022-10-07T03:38:07.233Z,10.13
2022-10-07T03:40:34.230Z,9.40
2022-10-07T03:43:03.083Z,9.94
2022-10-07T03:45:32.862Z,10.35
2022-10-07T03:48:00.951Z,9.17
2022-10-07T03:50:28.036Z,9.73
2022-10-07T03:52:59.002Z,10.19
2022-10-07T03:55:26.088Z,9.89
2022-10-07T03:57:58.405Z,10.29
2022-10-07T04:00:32.313Z,10.40
2022-10-07T04:02:58.993Z,10.40
2022-10-07T04:05:26.059Z,10.34
2022-10-07T04:07:53.439Z,10.23
2022-10-07T04:10:23.865Z,10.39
2022-10-07T04:12:51.563Z,10.33
2022-10-07T04:15:18.764Z,10.46
2022-10-07T04:17:47.544Z,10.40
2022-10-07T04:20:16.304Z,10.22
2022-10-07T04:22:44.976Z,10.46
2022-10-07T04:25:12.604Z,10.52
2022-10-07T04:27:58.176Z,10.53
2022-10-07T04:30:27.196Z,9.58
2022-10-07T04:32:55.106Z,9.78
2022-10-07T04:35:23.081Z,10.56
2022-10-07T04:37:50.546Z,10.47
2022-10-07T04:40:19.050Z,10.17
2022-10-07T04:42:48.076Z,9.40
2022-10-07T04:45:15.525Z,9.71
2022-10-07T04:47:46.583Z,10.39
2022-10-07T04:50:15.746Z,10.56
2022-10-07T04:52:43.324Z,10.40
2022-10-07T04:55:12.639Z,9.63
2022-10-07T04:57:48.238Z,9.86
2022-10-07T05:00:19.636Z,9.82
2022-10-07T05:02:47.793Z,10.66
2022-10-07T05:05:19.492Z,10.50
2022-10-07T05:07:52.442Z,10.65
2022-10-07T05:10:21.325Z,9.65
2022-10-07T05:12:55.127Z,9.53
2022-10-07T05:15:24.245Z,10.43
2022-10-07T05:17:51.944Z,10.69
2022-10-07T05:20:18.942Z,10.01
2022-10-07T05:22:45.868Z,9.91
2022-10-07T05:25:14.119Z,9.93
2022-10-07T05:27:41.071Z,10.60
2022-10-07T05:30:10.866Z,10.65
2022-10-07T05:32:38.922Z,9.86
2022-10-07T05:35:10.288Z,10.37
2022-10-07T05:37:37.139Z,10.18
2022-10-07T05:40:06.520Z,9.44
2022-10-07T05:42:33.530Z,10.65
2022-10-07T05:45:00.871Z,10.27
2022-10-07T05:47:27.850Z,9.56
2022-10-07T05:49:56.156Z,10.70
2022-10-07T05:52:23.243Z,10.62
2022-10-07T05:54:50.194Z,10.68
2022-10-07T05:57:17.174Z,10.70
2022-10-07T05:59:43.929Z,10.70
2022-10-07T06:02:14.599Z,10.72
2022-10-07T06:04:41.602Z,10.69
2022-10-07T06:07:10.013Z,10.69
2022-10-07T06:09:36.663Z,10.73
2022-10-07T06:12:04.257Z,10.27
2022-10-07T06:14:30.999Z,10.57
2022-10-07T06:16:58.507Z,10.33
2022-10-07T06:19:25.510Z,10.75
2022-10-07T06:21:52.216Z,10.78
2022-10-07T06:24:20.663Z,10.77
2022-10-07T06:26:49.094Z,10.77
2022-10-07T06:29:15.776Z,10.82
2022-10-07T06:31:42.501Z,10.82
2022-10-07T06:34:09.187Z,10.87
2022-10-07T06:36:35.826Z,10.91
2022-10-07T06:39:02.932Z,10.95
2022-10-07T06:41:33.420Z,10.99
2022-10-07T06:44:01.593Z,10.89
2022-10-07T06:46:29.811Z,10.60
2022-10-07T06:48:56.685Z,10.67
2022-10-07T06:51:23.503Z,9.82
2022-10-07T06:53:52.552Z,11.08
2022-10-07T06:56:19.511Z,10.63
2022-10-07T06:58:47.675Z,11.09
2022-10-07T07:01:14.657Z,10.68
2022-10-07T07:06:25.211Z,11.28
2022-10-07T07:11:56.632Z,10.64
2022-10-07T07:15:14.503Z,11.13
2022-10-07T07:17:41.385Z,11.37
2022-10-07T07:20:11.370Z,10.94
2022-10-07T07:22:42.730Z,10.39
2022-10-07T07:25:09.622Z,11.48
2022-10-07T07:28:06.440Z,10.17
2022-10-07T07:30:35.400Z,10.82
2022-10-07T07:33:01.983Z,11.10
2022-10-07T07:35:30.264Z,11.70
2022-10-07T07:37:56.963Z,11.73
2022-10-07T07:40:23.717Z,11.43
2022-10-07T07:42:50.584Z,11.01
2022-10-07T07:45:17.749Z,11.84
2022-10-07T08:20:06.862Z,12.46
2022-10-07T08:23:07.205Z,11.40
2022-10-07T08:25:34.574Z,12.12
2022-10-07T08:28:06.712Z,12.24
2022-10-07T08:48:05.292Z,13.31
2022-10-07T08:54:03.337Z,13.18
2022-10-07T08:56:38.387Z,12.46
2022-10-07T09:22:16.112Z,14.01
2022-10-07T09:52:58.577Z,14.55
2022-10-07T09:55:32.296Z,15.13
2022-10-07T09:58:07.639Z,15.41
2022-10-07T10:00:49.367Z,15.18
2022-10-07T10:03:29.465Z,14.66
2022-10-07T10:06:00.446Z,15.70
2022-10-07T10:08:33.242Z,14.89
2022-10-07T10:11:06.345Z,14.79
2022-10-07T10:13:35.450Z,15.87
2022-10-07T10:16:05.136Z,16.05
2022-10-07T10:21:31.185Z,16.38
2022-10-07T10:24:12.464Z,16.44
2022-10-07T10:26:54.490Z,16.18
2022-10-07T10:29:48.276Z,16.65
2022-10-07T10:32:34.440Z,16.88
2022-10-07T10:35:14.704Z,16.59
2022-10-07T10:38:09.811Z,16.08
2022-10-07T10:41:02.441Z,16.82
2022-10-07T10:43:47.030Z,16.82
2022-10-07T10:49:48.352Z,17.18
2022-10-07T10:52:48.774Z,16.28
2022-10-07T10:55:55.120Z,16.43
2022-10-07T11:02:18.774Z,17.31
2022-10-07T11:05:24.068Z,16.97
2022-10-07T11:08:18.826Z,17.04
2022-10-07T11:11:00.278Z,17.47
2022-10-07T11:13:36.578Z,17.33
2022-10-07T11:16:33.709Z,17.73
2022-10-07T11:20:03.122Z,17.25
2022-10-07T11:23:09.412Z,17.97
2022-10-07T11:26:10.622Z,18.07
2022-10-07T11:29:03.236Z,18.08
2022-10-07T11:31:49.056Z,18.21
2022-10-07T11:34:29.702Z,18.13
2022-10-07T11:37:59.724Z,17.40
2022-10-07T11:40:49.662Z,18.06
2022-10-07T11:43:38.407Z,18.07
2022-10-07T11:49:11.790Z,18.21
2022-10-07T11:51:51.369Z,18.07
2022-10-07T11:54:34.350Z,17.29
2022-10-07T12:08:06.676Z,17.91
2022-10-07T12:15:09.200Z,17.94
2022-10-07T12:18:32.128Z,17.93
2022-10-07T12:21:27.303Z,17.39
2022-10-07T12:25:00.365Z,17.24
2022-10-07T12:27:32.741Z,17.00
2022-10-07T12:31:17.885Z,16.54
2022-10-07T12:34:22.077Z,16.62
2022-10-07T12:44:04.832Z,17.41
2022-10-07T12:47:09.119Z,17.41
2022-10-07T12:53:05.887Z,17.27
2022-10-07T12:55:48.086Z,17.47
2022-10-07T12:58:58.847Z,17.32
2022-10-07T13:09:39.114Z,16.60
2022-10-07T13:16:41.396Z,17.55
2022-10-07T13:19:56.594Z,18.09
2022-10-07T13:23:27.277Z,18.55
2022-10-07T13:33:33.746Z,17.82
2022-10-07T13:37:07.088Z,17.93
2022-10-07T13:39:48.153Z,18.74
2022-10-07T13:42:21.361Z,18.37
2022-10-07T13:45:07.773Z,19.05
2022-10-07T13:47:59.002Z,19.50
2022-10-07T13:50:37.380Z,19.04
2022-10-07T13:53:20.779Z,19.59
2022-10-07T13:59:18.557Z,20.52
2022-10-07T14:02:15.679Z,20.38
2022-10-07T14:05:25.249Z,21.15
2022-10-07T14:08:25.742Z,20.44
2022-10-07T14:14:44.242Z,21.42
2022-10-07T14:21:20.420Z,19.75
2022-10-07T14:30:53.284Z,18.73
2022-10-07T14:40:31.777Z,18.34
2022-10-07T14:43:39.616Z,18.04
2022-10-07T14:46:31.707Z,17.19
2022-10-07T14:49:53.821Z,17.74
2022-10-07T14:52:52.837Z,18.08
2022-10-07T14:55:36.151Z,16.96
2022-10-07T14:58:32.261Z,17.99
2022-10-07T15:01:11.214Z,17.69
2022-10-07T15:04:19.677Z,16.66
2022-10-07T15:07:19.019Z,17.41
2022-10-07T15:10:13.892Z,17.62
2022-10-07T15:16:37.066Z,16.48
2022-10-07T15:20:25.046Z,16.36
2022-10-07T15:34:22.029Z,17.43
2022-10-07T15:40:27.600Z,16.55
2022-10-07T15:47:00.273Z,16.38
2022-10-07T15:49:59.710Z,16.35
2022-10-07T15:52:30.770Z,15.92
2022-10-07T15:55:07.250Z,16.14
2022-10-07T16:01:06.450Z,15.90
2022-10-07T16:04:05.233Z,15.67
2022-10-07T16:07:11.159Z,16.18
2022-10-07T16:20:02.111Z,15.37
2022-10-07T16:42:42.561Z,16.17
2022-10-07T16:45:19.361Z,15.17
2022-10-07T16:47:54.504Z,15.34
2022-10-07T16:56:58.836Z,15.58
2022-10-07T16:59:33.515Z,15.31
2022-10-07T17:02:33.279Z,16.17
2022-10-07T17:05:05.594Z,15.20
2022-10-07T17:07:53.050Z,15.33
2022-10-07T17:10:30.117Z,15.85
2022-10-07T17:19:39.976Z,15.98
2022-10-07T17:32:45.386Z,15.76
2022-10-07T17:35:28.030Z,15.64
2022-10-07T17:39:09.989Z,15.49
2022-10-07T17:41:57.641Z,15.24
2022-10-07T17:48:04.197Z,15.71
2022-10-07T17:50:54.729Z,15.40
2022-10-07T18:02:21.066Z,14.65
2022-10-07T18:05:15.036Z,15.17
2022-10-07T18:09:09.493Z,14.36
2022-10-07T18:15:13.298Z,15.04
2022-10-07T18:18:26.175Z,15.56
2022-10-07T18:24:16.377Z,15.02
2022-10-07T18:27:02.380Z,14.68
2022-10-07T18:30:14.069Z,14.69
2022-10-07T18:33:01.541Z,14.82
2022-10-07T18:35:51.958Z,14.68
2022-10-07T18:38:41.441Z,14.83
2022-10-07T18:41:28.688Z,13.99
2022-10-07T18:44:11.952Z,14.18
2022-10-07T18:46:51.599Z,14.50
2022-10-07T18:49:31.246Z,13.97
2022-10-07T18:52:18.498Z,13.92
2022-10-07T18:54:56.159Z,13.83
2022-10-07T18:57:26.959Z,14.25
2022-10-07T19:00:05.998Z,14.89
2022-10-07T19:02:43.239Z,13.88
2022-10-07T19:05:26.560Z,14.28
2022-10-07T19:08:27.995Z,13.58
2022-10-07T19:11:24.600Z,14.37
2022-10-07T19:14:21.427Z,14.34
2022-10-07T19:17:11.959Z,13.78
2022-10-07T19:22:53.645Z,14.71
2022-10-07T19:25:40.198Z,13.55
2022-10-07T19:28:28.355Z,14.03
2022-10-07T19:30:59.495Z,14.57
2022-10-07T19:33:54.554Z,14.19
2022-10-07T19:36:31.459Z,14.41
2022-10-07T19:54:06.944Z,14.43
2022-10-07T19:57:05.056Z,14.15
2022-10-07T19:59:56.757Z,13.43
2022-10-07T20:03:08.047Z,14.21
2022-10-07T20:06:02.916Z,12.84
2022-10-07T20:11:39.202Z,13.56
2022-10-07T20:14:17.376Z,13.67
2022-10-07T20:17:03.429Z,14.22
2022-10-07T20:19:51.778Z,14.17
2022-10-07T20:22:31.949Z,12.97
2022-10-07T20:26:26.875Z,12.88
2022-10-07T20:28:39.580Z,12.82
2022-10-07T20:58:59.239Z,13.19
2022-10-07T21:01:26.233Z,13.50
2022-10-07T21:03:54.738Z,14.09
2022-10-07T21:04:05.884Z,13.77
2022-10-07T21:06:21.579Z,13.78
2022-10-07T21:08:56.739Z,13.58
2022-10-07T21:11:33.880Z,13.47
2022-10-07T21:14:04.164Z,14.07
2022-10-07T21:16:50.379Z,14.07
2022-10-07T21:19:30.575Z,13.78
2022-10-07T21:22:21.125Z,14.06
2022-10-07T21:24:58.142Z,12.79
2022-10-07T21:27:36.793Z,14.09
2022-10-07T21:30:16.356Z,13.80
2022-10-07T21:33:03.615Z,14.08
2022-10-07T21:35:58.331Z,13.40
2022-10-07T21:41:48.177Z,12.81
2022-10-07T21:44:21.752Z,13.41
2022-10-07T21:46:52.435Z,13.88
2022-10-07T21:49:42.988Z,13.72
2022-10-07T21:52:28.247Z,13.99
2022-10-07T21:55:15.282Z,14.25
2022-10-07T22:07:29.993Z,13.06
2022-10-07T22:10:01.753Z,13.11
2022-10-07T22:12:33.270Z,13.69
2022-10-07T22:15:00.127Z,14.09
2022-10-07T22:17:34.740Z,13.85
2022-10-07T22:20:16.356Z,12.73
2022-10-07T22:22:48.947Z,14.00
2022-10-07T22:25:21.336Z,13.46
2022-10-07T22:28:18.243Z,12.82
2022-10-07T22:30:57.299Z,13.50
2022-10-07T22:33:26.411Z,13.42
2022-10-07T22:36:00.004Z,12.76
2022-10-07T22:38:38.430Z,12.98
2022-10-07T22:41:06.271Z,13.65
2022-10-07T22:43:40.368Z,13.46
2022-10-07T22:46:25.619Z,13.88
2022-10-07T22:49:00.883Z,12.87
2022-10-07T22:51:30.591Z,14.02
2022-10-07T22:54:08.152Z,13.59
2022-10-07T22:56:53.334Z,13.80
2022-10-07T22:59:31.850Z,13.96
2022-10-07T23:02:10.362Z,13.99
2022-10-07T23:04:49.172Z,12.76
2022-10-07T23:07:17.329Z,13.17
2022-10-07T23:09:51.007Z,13.76
2022-10-07T23:12:22.037Z,12.76
2022-10-07T23:14:55.853Z,12.80
2022-10-07T23:17:34.624Z,14.00
2022-10-07T23:20:22.121Z,12.61
2022-10-07T23:22:59.834Z,12.79
2022-10-07T23:25:26.768Z,13.18
2022-10-07T23:27:57.644Z,13.54
2022-10-07T23:30:32.382Z,12.84
2022-10-07T23:33:02.702Z,13.14
2022-10-07T23:35:40.250Z,13.13
2022-10-07T23:38:14.893Z,13.10
2022-10-07T23:41:04.458Z,13.33
2022-10-07T23:43:40.546Z,14.01
2022-10-07T23:46:13.002Z,13.68
2022-10-07T23:49:02.387Z,13.43
2022-10-07T23:51:49.548Z,13.45
2022-10-07T23:54:19.085Z,13.65
2022-10-07T23:56:46.026Z,12.70
2022-10-07T23:59:17.894Z,12.73
